createdAt,value
2022-09-16T00:01:33.993Z,12.64
2022-09-16T00:04:04.444Z,12.65
2022-09-16T00:06:34.756Z,12.62
2022-09-16T00:09:07.273Z,12.69
2022-09-16T00:11:37.281Z,12.63
2022-09-16T00:14:08.001Z,12.59
2022-09-16T00:16:38.044Z,12.64
2022-09-16T00:19:08.014Z,12.69
2022-09-16T00:21:38.015Z,12.67
2022-09-16T00:24:14.115Z,12.62
2022-09-16T00:26:44.154Z,12.59
2022-09-16T00:29:14.518Z,12.62
2022-09-16T00:31:44.531Z,12.59
2022-09-16T00:34:14.526Z,12.56
2022-09-16T00:36:44.491Z,12.55
2022-09-16T00:39:17.036Z,12.57
2022-09-16T00:41:47.352Z,12.58
2022-09-16T00:44:57.947Z,12.53
2022-09-16T00:47:35.891Z,12.48
2022-09-16T00:50:12.254Z,12.64
2022-09-16T00:52:43.801Z,12.62
2022-09-16T00:55:21.249Z,12.63
2022-09-16T00:57:52.245Z,12.63
2022-09-16T01:00:22.358Z,12.59
2022-09-16T01:02:54.173Z,12.80
2022-09-16T01:05:28.927Z,12.87
2022-09-16T01:07:59.434Z,12.84
2022-09-16T01:10:32.043Z,12.77
2022-09-16T01:13:07.564Z,12.73
2022-09-16T01:15:48.740Z,12.70
2022-09-16T01:18:34.337Z,12.70
2022-09-16T01:21:25.415Z,12.67
2022-09-16T01:24:52.974Z,12.62
2022-09-16T01:27:54.918Z,12.58
2022-09-16T01:31:02.827Z,12.44
2022-09-16T01:33:45.786Z,12.45
2022-09-16T01:36:40.284Z,12.55
2022-09-16T01:39:26.476Z,12.56
2022-09-16T01:42:18.738Z,12.48
2022-09-16T01:45:01.333Z,12.48
2022-09-16T01:47:41.006Z,12.48
2022-09-16T01:50:22.082Z,12.34
2022-09-16T01:53:04.909Z,12.34
2022-09-16T01:55:43.034Z,12.17
2022-09-16T01:58:23.003Z,12.10
2022-09-16T02:01:02.122Z,11.91
2022-09-16T02:03:42.107Z,11.80
2022-09-16T02:06:20.323Z,11.76
2022-09-16T02:08:57.774Z,11.77
2022-09-16T02:11:28.808Z,11.82
2022-09-16T02:14:08.583Z,11.78
2022-09-16T02:16:43.821Z,11.86
2022-09-16T02:19:23.659Z,11.98
2022-09-16T02:21:59.137Z,12.08
2022-09-16T02:24:34.115Z,12.60
2022-09-16T02:27:09.598Z,12.44
2022-09-16T02:29:47.588Z,12.25
2022-09-16T02:32:20.518Z,12.34
2022-09-16T02:34:55.625Z,13.00
2022-09-16T02:37:33.055Z,12.77
2022-09-16T02:40:08.682Z,12.74
2022-09-16T02:42:38.693Z,12.74
2022-09-16T02:45:11.162Z,12.66
2022-09-16T02:47:54.930Z,12.57
2022-09-16T02:50:37.891Z,12.58
2022-09-16T02:53:27.444Z,12.61
2022-09-16T02:56:06.251Z,12.54
2022-09-16T02:58:37.196Z,12.63
2022-09-16T03:01:07.404Z,12.54
2022-09-16T03:03:37.533Z,12.63
2022-09-16T03:06:23.028Z,12.66
2022-09-16T03:08:55.477Z,12.72
2022-09-16T03:12:20.800Z,12.73
2022-09-16T03:15:33.024Z,12.86
2022-09-16T03:18:26.444Z,12.96
2022-09-16T03:21:06.921Z,12.87
2022-09-16T03:23:50.011Z,12.86
2022-09-16T03:26:36.137Z,12.78
2022-09-16T03:29:19.071Z,12.75
2022-09-16T03:32:00.104Z,12.74
2022-09-16T03:34:38.202Z,12.70
2022-09-16T03:37:12.910Z,12.70
2022-09-16T03:39:50.480Z,12.62
2022-09-16T03:42:20.771Z,12.56
2022-09-16T03:44:51.364Z,12.58
2022-09-16T03:47:21.399Z,12.56
2022-09-16T03:49:51.557Z,12.59
2022-09-16T03:52:21.542Z,12.59
2022-09-16T03:54:54.068Z,12.59
2022-09-16T03:57:24.019Z,12.54
2022-09-16T03:59:54.110Z,12.61
2022-09-16T04:02:24.061Z,12.63
2022-09-16T04:04:54.150Z,12.74
2022-09-16T04:07:24.069Z,12.63
2022-09-16T04:09:56.619Z,12.66
2022-09-16T04:12:26.628Z,12.66
2022-09-16T04:14:56.659Z,12.74
2022-09-16T04:17:27.013Z,12.70
2022-09-16T04:19:56.970Z,12.71
2022-09-16T04:22:26.956Z,12.67
2022-09-16T04:24:59.574Z,12.61
2022-09-16T04:27:29.599Z,12.65
2022-09-16T04:29:59.511Z,12.62
2022-09-16T04:32:29.418Z,12.60
2022-09-16T04:34:59.469Z,12.60
2022-09-16T04:37:32.184Z,12.61
2022-09-16T04:40:05.475Z,12.61
2022-09-16T04:42:35.434Z,12.72
2022-09-16T04:45:05.397Z,12.69
2022-09-16T04:47:35.365Z,12.67
2022-09-16T04:50:05.307Z,12.72
2022-09-16T04:52:35.261Z,12.71
2022-09-16T04:55:09.353Z,12.68
2022-09-16T04:57:39.243Z,12.74
2022-09-16T05:00:12.509Z,12.79
2022-09-16T05:02:42.446Z,12.73
2022-09-16T05:05:12.839Z,12.71
2022-09-16T05:07:42.789Z,12.69
2022-09-16T05:10:15.854Z,12.75
2022-09-16T05:12:49.389Z,12.81
2022-09-16T05:15:19.973Z,12.85
2022-09-16T05:17:51.726Z,12.87
2022-09-16T05:20:21.982Z,12.91
2022-09-16T05:22:53.106Z,12.85
2022-09-16T05:25:25.653Z,12.80
2022-09-16T05:27:55.694Z,12.74
2022-09-16T05:30:26.375Z,12.68
2022-09-16T05:32:57.012Z,12.68
2022-09-16T05:35:27.124Z,12.77
2022-09-16T05:37:57.081Z,12.65
2022-09-16T05:40:30.019Z,12.71
2022-09-16T05:43:00.024Z,12.68
2022-09-16T05:45:32.394Z,12.74
2022-09-16T05:48:02.815Z,12.79
2022-09-16T05:50:32.732Z,12.76
2022-09-16T05:53:02.632Z,12.81
2022-09-16T05:55:35.134Z,12.78
2022-09-16T05:58:05.048Z,12.78
2022-09-16T06:00:35.599Z,12.74
2022-09-16T06:03:05.681Z,12.65
2022-09-16T06:05:35.613Z,12.72
2022-09-16T06:08:05.722Z,12.83
2022-09-16T06:10:41.170Z,12.84
2022-09-16T06:13:11.646Z,12.90
2022-09-16T06:15:41.659Z,12.95
2022-09-16T06:18:15.919Z,12.82
2022-09-16T06:20:45.843Z,12.86
2022-09-16T06:23:15.933Z,12.83
2022-09-16T06:25:48.877Z,12.73
2022-09-16T06:28:19.091Z,12.73
2022-09-16T06:30:49.094Z,12.71
2022-09-16T06:33:19.110Z,12.64
2022-09-16T06:35:49.042Z,12.67
2022-09-16T06:38:19.144Z,12.55
2022-09-16T06:40:51.921Z,12.57
2022-09-16T06:43:21.846Z,12.46
2022-09-16T06:45:51.989Z,12.53
2022-09-16T06:48:22.111Z,12.47
2022-09-16T06:50:52.167Z,12.46
2022-09-16T06:53:22.107Z,12.37
2022-09-16T06:55:54.780Z,12.30
2022-09-16T06:58:24.732Z,12.33
2022-09-16T07:00:55.140Z,12.13
2022-09-16T07:03:25.110Z,11.87
2022-09-16T07:06:03.183Z,11.82
2022-09-16T07:08:34.917Z,11.84
2022-09-16T07:11:10.523Z,11.91
2022-09-16T07:13:40.582Z,11.96
2022-09-16T07:16:17.775Z,11.91
2022-09-16T07:18:49.015Z,11.89
2022-09-16T07:21:24.431Z,11.92
2022-09-16T07:23:58.428Z,11.89
2022-09-16T07:26:33.723Z,11.77
2022-09-16T07:29:06.953Z,11.58
2022-09-16T07:31:40.225Z,11.59
2022-09-16T07:34:13.134Z,11.63
2022-09-16T07:36:45.658Z,11.65
2022-09-16T07:39:18.349Z,11.69
2022-09-16T07:41:51.222Z,11.73
2022-09-16T07:44:22.906Z,11.62
2022-09-16T07:46:53.109Z,11.57
2022-09-16T07:49:23.224Z,11.72
2022-09-16T07:51:53.334Z,11.94
2022-09-16T07:54:23.335Z,12.08
2022-09-16T07:56:55.956Z,12.22
2022-09-16T07:59:25.899Z,12.16
2022-09-16T08:01:55.904Z,12.22
2022-09-16T08:04:25.924Z,12.13
2022-09-16T08:06:55.891Z,12.05
2022-09-16T08:09:37.897Z,12.02
2022-09-16T08:12:12.862Z,12.27
2022-09-16T08:14:42.892Z,12.36
2022-09-16T08:17:12.818Z,12.47
2022-09-16T08:19:42.782Z,12.77
2022-09-16T08:22:12.689Z,13.20
2022-09-16T08:24:42.623Z,13.55
2022-09-16T08:27:15.856Z,13.43
2022-09-16T08:29:45.841Z,13.54
2022-09-16T08:32:15.961Z,13.82
2022-09-16T08:34:45.993Z,14.12
2022-09-16T08:37:15.876Z,14.32
2022-09-16T08:39:45.850Z,14.35
2022-09-16T08:42:40.497Z,14.44
2022-09-16T08:45:23.266Z,14.37
2022-09-16T08:48:10.725Z,14.42
2022-09-16T08:50:45.022Z,14.49
2022-09-16T08:53:24.715Z,14.53
2022-09-16T08:55:55.873Z,14.33
2022-09-16T08:58:36.757Z,14.14
2022-09-16T09:01:18.895Z,14.07
2022-09-16T09:03:51.103Z,14.12
2022-09-16T09:06:46.156Z,13.88
2022-09-16T09:09:34.641Z,13.61
2022-09-16T09:12:15.659Z,13.70
2022-09-16T09:15:07.019Z,13.94
2022-09-16T09:17:55.873Z,14.03
2022-09-16T09:20:47.061Z,14.48
2022-09-16T09:23:36.962Z,14.58
2022-09-16T09:26:16.397Z,14.71
2022-09-16T09:29:22.258Z,15.08
2022-09-16T09:32:07.379Z,15.60
2022-09-16T09:34:55.894Z,15.75
2022-09-16T09:37:46.670Z,15.66
2022-09-16T09:40:25.406Z,15.37
2022-09-16T09:43:07.873Z,15.23
2022-09-16T09:45:43.632Z,15.06
2022-09-16T09:48:25.353Z,14.79
2022-09-16T09:50:58.753Z,14.83
2022-09-16T09:53:35.763Z,15.24
2022-09-16T09:56:19.562Z,15.17
2022-09-16T09:59:03.469Z,15.50
2022-09-16T10:01:33.667Z,15.78
2022-09-16T10:04:15.394Z,15.69
2022-09-16T10:06:47.880Z,15.60
2022-09-16T10:09:20.158Z,15.40
2022-09-16T10:11:55.166Z,14.91
2022-09-16T10:14:33.881Z,14.91
2022-09-16T10:17:06.907Z,14.59
2022-09-16T10:19:54.090Z,14.56
2022-09-16T10:22:29.704Z,14.83
2022-09-16T10:25:02.259Z,14.82
2022-09-16T10:27:36.864Z,15.23
2022-09-16T10:30:18.141Z,15.61
2022-09-16T10:32:59.269Z,16.12
2022-09-16T10:35:35.112Z,16.33
2022-09-16T10:38:15.892Z,16.37
2022-09-16T10:40:55.625Z,16.54
2022-09-16T10:43:28.179Z,17.01
2022-09-16T10:45:58.978Z,17.31
2022-09-16T10:48:33.937Z,17.35
2022-09-16T10:51:09.188Z,17.32
2022-09-16T10:53:44.395Z,17.01
2022-09-16T10:56:23.727Z,16.89
2022-09-16T10:59:06.106Z,16.86
2022-09-16T11:01:48.701Z,16.87
2022-09-16T11:04:46.901Z,16.64
2022-09-16T11:07:37.486Z,16.37
2022-09-16T11:10:20.335Z,15.94
2022-09-16T11:13:23.605Z,15.98
2022-09-16T11:16:11.709Z,15.86
2022-09-16T11:18:58.973Z,16.02
2022-09-16T11:21:56.988Z,15.89
2022-09-16T11:25:08.190Z,16.00
2022-09-16T11:27:51.886Z,15.85
2022-09-16T11:30:24.945Z,15.79
2022-09-16T11:33:22.362Z,15.93
2022-09-16T11:36:34.329Z,16.18
2022-09-16T11:39:23.758Z,16.38
2022-09-16T11:42:07.050Z,16.69
2022-09-16T11:44:49.436Z,16.79
2022-09-16T11:47:51.735Z,16.88
2022-09-16T11:50:43.248Z,16.86
2022-09-16T11:53:44.120Z,16.78
2022-09-16T11:56:21.500Z,16.84
2022-09-16T11:59:00.137Z,16.97
2022-09-16T12:01:40.252Z,17.35
2022-09-16T12:04:18.912Z,17.53
2022-09-16T12:07:01.210Z,18.03
2022-09-16T12:09:42.366Z,17.93
2022-09-16T12:12:17.544Z,18.07
2022-09-16T12:15:00.894Z,18.30
2022-09-16T12:17:37.531Z,18.16
2022-09-16T12:20:18.301Z,18.44
2022-09-16T12:22:54.614Z,18.85
2022-09-16T12:25:31.473Z,18.09
2022-09-16T12:28:10.496Z,18.24
2022-09-16T12:30:49.326Z,17.44
2022-09-16T12:33:27.032Z,17.75
2022-09-16T12:36:04.277Z,17.92
2022-09-16T12:38:34.667Z,17.51
2022-09-16T12:41:34.687Z,17.43
2022-09-16T12:44:46.298Z,17.48
2022-09-16T12:47:51.728Z,17.86
2022-09-16T12:50:55.236Z,17.83
2022-09-16T12:53:56.371Z,17.62
2022-09-16T12:56:46.294Z,17.68
2022-09-16T12:59:45.107Z,17.10
2022-09-16T13:02:24.188Z,17.16
2022-09-16T13:04:58.942Z,17.14
2022-09-16T13:07:35.316Z,16.57
2022-09-16T13:10:08.749Z,16.26
2022-09-16T13:12:44.010Z,16.39
2022-09-16T13:15:29.902Z,16.59
2022-09-16T13:18:12.665Z,17.33
2022-09-16T13:20:50.649Z,17.53
2022-09-16T13:23:26.543Z,17.57
2022-09-16T13:26:02.570Z,18.14
2022-09-16T13:28:41.761Z,18.22
2022-09-16T13:31:34.349Z,17.83
2022-09-16T13:34:21.140Z,18.30
2022-09-16T13:36:51.375Z,18.74
2022-09-16T13:39:33.692Z,18.77
2022-09-16T13:42:21.096Z,19.36
2022-09-16T13:44:51.508Z,19.87
2022-09-16T13:47:40.339Z,19.91
2022-09-16T13:50:19.460Z,19.89
2022-09-16T13:52:50.678Z,20.46
2022-09-16T13:55:27.678Z,20.25
2022-09-16T13:58:07.079Z,20.08
2022-09-16T14:00:49.979Z,19.37
2022-09-16T14:03:53.231Z,19.03
2022-09-16T14:06:54.770Z,18.45
2022-09-16T14:09:45.973Z,18.34
2022-09-16T14:12:27.382Z,19.01
2022-09-16T14:15:01.106Z,18.36
2022-09-16T14:17:41.890Z,18.66
2022-09-16T14:20:18.975Z,19.14
2022-09-16T14:23:05.093Z,19.23
2022-09-16T14:25:39.105Z,18.46
2022-09-16T14:28:24.157Z,18.38
2022-09-16T14:30:58.194Z,18.90
2022-09-16T14:33:33.859Z,19.54
2022-09-16T14:36:13.581Z,19.60
2022-09-16T14:38:52.265Z,20.23
2022-09-16T14:41:29.716Z,19.29
2022-09-16T14:44:11.502Z,18.74
2022-09-16T14:46:47.883Z,18.19
2022-09-16T14:49:20.185Z,17.60
2022-09-16T14:51:57.868Z,17.85
2022-09-16T14:54:31.227Z,17.62
2022-09-16T14:57:03.438Z,17.94
2022-09-16T14:59:38.153Z,18.28
2022-09-16T15:02:19.600Z,18.45
2022-09-16T15:04:56.884Z,17.73
2022-09-16T15:07:46.028Z,17.61
2022-09-16T15:10:49.976Z,17.77
2022-09-16T15:13:27.028Z,17.27
2022-09-16T15:16:02.577Z,17.29
2022-09-16T15:18:36.298Z,17.60
2022-09-16T15:21:13.328Z,17.99
2022-09-16T15:23:50.858Z,18.45
2022-09-16T15:26:27.367Z,18.50
2022-09-16T15:29:01.352Z,18.19
2022-09-16T15:31:40.440Z,18.05
2022-09-16T15:34:26.701Z,17.35
2022-09-16T15:37:05.264Z,17.20
2022-09-16T15:39:37.799Z,17.37
2022-09-16T15:42:20.554Z,17.12
2022-09-16T15:44:53.815Z,17.24
2022-09-16T15:47:29.004Z,17.08
2022-09-16T15:50:05.104Z,17.07
2022-09-16T15:52:51.833Z,17.00
2022-09-16T15:55:37.979Z,17.02
2022-09-16T15:58:20.263Z,16.96
2022-09-16T16:01:03.436Z,17.12
2022-09-16T16:03:40.363Z,17.31
2022-09-16T16:06:10.425Z,17.42
2022-09-16T16:08:46.054Z,17.67
2022-09-16T16:11:19.253Z,17.66
2022-09-16T16:13:53.232Z,17.37
2022-09-16T16:16:23.585Z,16.84
2022-09-16T16:18:53.649Z,16.48
2022-09-16T16:21:23.628Z,16.49
2022-09-16T16:23:53.932Z,16.08
2022-09-16T16:26:24.838Z,15.98
2022-09-16T16:28:57.311Z,16.10
2022-09-16T16:31:27.367Z,16.11
2022-09-16T16:33:58.102Z,15.94
2022-09-16T16:36:28.193Z,15.90
2022-09-16T16:38:58.248Z,15.95
2022-09-16T16:41:28.318Z,16.06
2022-09-16T16:44:00.786Z,16.08
2022-09-16T16:46:32.689Z,16.40
2022-09-16T16:49:02.796Z,16.72
2022-09-16T16:51:32.765Z,16.29
2022-09-16T16:54:03.635Z,16.35
2022-09-16T16:56:33.658Z,16.34
2022-09-16T16:59:06.176Z,16.18
2022-09-16T17:01:36.203Z,16.16
2022-09-16T17:04:07.347Z,15.86
2022-09-16T17:06:38.603Z,15.77
2022-09-16T17:09:15.889Z,15.55
2022-09-16T17:11:55.597Z,15.37
2022-09-16T17:14:30.971Z,15.25
2022-09-16T17:17:02.706Z,15.05
2022-09-16T17:19:32.818Z,14.79
2022-09-16T17:22:03.100Z,14.60
2022-09-16T17:24:34.721Z,14.64
2022-09-16T17:27:05.086Z,14.60
2022-09-16T17:29:37.640Z,14.48
2022-09-16T17:32:08.182Z,14.40
2022-09-16T17:34:38.080Z,14.20
2022-09-16T17:37:08.527Z,14.26
2022-09-16T17:39:38.697Z,14.11
2022-09-16T17:42:09.194Z,13.86
2022-09-16T17:44:42.585Z,13.60
2022-09-16T17:47:12.721Z,13.33
2022-09-16T17:49:42.670Z,12.86
2022-09-16T17:52:12.586Z,12.55
2022-09-16T17:54:43.084Z,12.49
2022-09-16T17:57:13.051Z,12.47
2022-09-16T17:59:45.553Z,12.51
2022-09-16T18:02:15.840Z,12.50
2022-09-16T18:04:47.888Z,12.24
2022-09-16T18:07:17.958Z,11.95
2022-09-16T18:09:47.961Z,11.45
2022-09-16T18:12:17.990Z,11.15
2022-09-16T18:14:50.518Z,11.16
2022-09-16T18:17:20.452Z,10.99
2022-09-16T18:19:50.451Z,10.89
2022-09-16T18:22:20.370Z,10.82
2022-09-16T18:24:50.571Z,10.68
2022-09-16T18:27:20.613Z,10.69
2022-09-16T18:29:53.282Z,10.74
2022-09-16T18:32:23.228Z,10.71
2022-09-16T18:34:53.658Z,10.69
2022-09-16T18:37:24.369Z,10.58
2022-09-16T18:39:54.363Z,10.50
2022-09-16T18:42:24.310Z,10.49
2022-09-16T18:44:56.787Z,10.47
2022-09-16T18:47:26.813Z,10.44
2022-09-16T18:49:56.747Z,10.45
2022-09-16T18:52:26.810Z,10.38
2022-09-16T18:54:57.215Z,10.31
2022-09-16T18:57:27.372Z,10.20
2022-09-16T18:59:59.893Z,10.17
2022-09-16T19:02:29.943Z,10.13
2022-09-16T19:05:00.052Z,10.14
2022-09-16T19:07:30.165Z,10.06
2022-09-16T19:10:00.135Z,10.02
2022-09-16T19:12:30.142Z,9.99
2022-09-16T19:15:02.617Z,9.93
2022-09-16T19:17:33.179Z,9.89
2022-09-16T19:20:03.346Z,9.87
2022-09-16T19:22:33.251Z,9.85
2022-09-16T19:25:03.198Z,9.75
2022-09-16T19:27:33.856Z,9.76
2022-09-16T19:30:07.743Z,9.73
2022-09-16T19:32:38.093Z,9.67
2022-09-16T19:35:10.418Z,9.65
2022-09-16T19:37:40.432Z,9.63
2022-09-16T19:40:11.852Z,9.56
2022-09-16T19:42:41.905Z,9.55
2022-09-16T19:45:14.492Z,9.53
2022-09-16T19:47:44.588Z,9.54
2022-09-16T19:50:14.676Z,9.47
2022-09-16T19:52:44.638Z,9.47
2022-09-16T19:55:14.563Z,9.50
2022-09-16T19:57:44.523Z,9.49
2022-09-16T20:00:18.346Z,9.43
2022-09-16T20:02:48.882Z,9.42
2022-09-16T20:05:19.081Z,9.46
2022-09-16T20:07:49.019Z,9.43
2022-09-16T20:10:19.250Z,9.39
2022-09-16T20:12:49.164Z,9.30
2022-09-16T20:15:22.416Z,9.26
2022-09-16T20:17:52.343Z,9.20
2022-09-16T20:20:22.603Z,9.16
2022-09-16T20:22:52.535Z,9.14
2022-09-16T20:25:23.694Z,9.08
2022-09-16T20:27:53.761Z,9.00
2022-09-16T20:30:26.349Z,8.92
2022-09-16T20:32:56.320Z,8.92
2022-09-16T20:35:26.294Z,8.84
2022-09-16T20:37:56.390Z,8.76
2022-09-16T20:40:26.472Z,8.70
2022-09-16T20:42:56.501Z,8.74
2022-09-16T20:45:29.235Z,8.77
2022-09-16T20:47:59.329Z,8.70
2022-09-16T20:50:29.334Z,8.66
2022-09-16T20:52:59.342Z,8.69
2022-09-16T20:55:29.492Z,8.68
2022-09-16T20:57:59.452Z,8.66
2022-09-16T21:00:33.708Z,8.66
2022-09-16T21:03:03.652Z,8.65
2022-09-16T21:05:33.602Z,8.64
2022-09-16T21:08:03.844Z,8.75
2022-09-16T21:10:36.060Z,8.87
2022-09-16T21:13:06.587Z,8.92
2022-09-16T21:15:39.101Z,8.93
2022-09-16T21:18:09.768Z,9.00
2022-09-16T21:20:41.246Z,9.11
2022-09-16T21:23:11.227Z,9.24
2022-09-16T21:25:41.929Z,9.35
2022-09-16T21:28:11.870Z,9.44
2022-09-16T21:30:44.340Z,9.56
2022-09-16T21:33:17.833Z,9.72
2022-09-16T21:35:54.685Z,9.87
2022-09-16T21:38:24.795Z,10.04
2022-09-16T21:41:00.015Z,10.06
2022-09-16T21:43:33.450Z,10.06
2022-09-16T21:46:06.629Z,10.11
2022-09-16T21:48:37.562Z,9.99
2022-09-16T21:51:10.693Z,10.00
2022-09-16T21:53:42.669Z,9.96
2022-09-16T21:56:15.705Z,9.90
2022-09-16T21:58:46.263Z,9.91
2022-09-16T22:01:22.193Z,9.87
2022-09-16T22:04:02.580Z,9.78
2022-09-16T22:06:33.458Z,9.72
2022-09-16T22:09:07.799Z,9.76
2022-09-16T22:11:40.890Z,9.70
2022-09-16T22:14:11.739Z,9.60
2022-09-16T22:16:44.659Z,9.56
2022-09-16T22:19:20.728Z,9.53
2022-09-16T22:21:53.162Z,9.49
2022-09-16T22:24:23.546Z,9.50
2022-09-16T22:26:54.639Z,9.62
2022-09-16T22:29:24.576Z,9.62
2022-09-16T22:31:57.213Z,9.67
2022-09-16T22:34:27.140Z,9.66
2022-09-16T22:36:57.092Z,9.68
2022-09-16T22:39:27.012Z,9.62
2022-09-16T22:41:57.047Z,9.60
2022-09-16T22:44:27.091Z,9.70
2022-09-16T22:46:59.621Z,9.67
2022-09-16T22:49:29.553Z,9.73
2022-09-16T22:51:59.522Z,9.71
2022-09-16T22:54:29.750Z,9.80
2022-09-16T22:56:59.644Z,9.74
2022-09-16T22:59:30.559Z,9.77
2022-09-16T23:02:03.310Z,9.72
2022-09-16T23:04:33.693Z,9.71
2022-09-16T23:07:03.869Z,9.65
2022-09-16T23:09:35.792Z,9.66
2022-09-16T23:12:07.367Z,9.62
2022-09-16T23:14:37.285Z,9.61
2022-09-16T23:17:09.830Z,9.60
2022-09-16T23:19:39.752Z,9.60
2022-09-16T23:22:09.908Z,9.61
2022-09-16T23:24:39.955Z,9.61
2022-09-16T23:27:09.873Z,9.59
2022-09-16T23:29:39.796Z,9.62
2022-09-16T23:32:12.348Z,9.51
2022-09-16T23:34:42.341Z,9.50
2022-09-16T23:37:12.358Z,9.42
2022-09-16T23:39:42.298Z,9.35
2022-09-16T23:42:12.941Z,9.34
2022-09-16T23:44:42.962Z,9.30
2022-09-16T23:47:15.594Z,9.33
2022-09-16T23:49:45.554Z,9.28
2022-09-16T23:52:15.481Z,9.28
2022-09-16T23:54:45.697Z,9.26
2022-09-16T23:57:15.679Z,9.43
2022-09-16T23:59:45.680Z,9.39
